createdAt,value
2018-04-15T00:00:03.409Z,1
2018-04-15T00:05:02.692Z,1
2018-04-15T00:10:03.330Z,1
2018-04-15T00:15:02.934Z,1
2018-04-15T00:20:02.641Z,1
2018-04-15T00:25:03.284Z,1
2018-04-15T00:30:02.960Z,1
2018-04-15T00:35:02.773Z,1
2018-04-15T00:40:03.445Z,1
2018-04-15T00:45:03.018Z,1
2018-04-15T00:50:02.648Z,1
2018-04-15T00:55:03.163Z,1
2018-04-15T01:00:02.794Z,1
2018-04-15T01:05:03.401Z,1
2018-04-15T01:10:03.083Z,1
2018-04-15T01:15:02.656Z,1
2018-04-15T01:20:03.275Z,1
2018-04-15T01:25:02.902Z,1
2018-04-15T01:30:02.472Z,1
2018-04-15T01:35:03.082Z,1
2018-04-15T01:40:02.764Z,1
2018-04-15T01:45:03.340Z,1
2018-04-15T01:50:02.942Z,1
2018-04-15T01:55:02.651Z,1
2018-04-15T02:00:03.231Z,1
2018-04-15T02:05:02.833Z,1
2018-04-15T02:10:02.466Z,1
2018-04-15T02:15:03.119Z,1
2018-04-15T02:20:02.795Z,1
2018-04-15T02:25:03.351Z,1
2018-04-15T02:30:02.918Z,1
2018-04-15T02:35:02.551Z,1
2018-04-15T02:40:03.171Z,1
2018-04-15T02:45:02.735Z,1
2018-04-15T02:55:02.904Z,1
2018-04-15T03:00:03.725Z,1
2018-04-15T03:05:03.375Z,1
2018-04-15T03:10:03.037Z,1
2018-04-15T03:15:02.680Z,1
2018-04-15T03:20:03.276Z,1
2018-04-15T03:25:02.805Z,1
2018-04-15T03:30:03.384Z,1
2018-04-15T03:35:03.007Z,1
2018-04-15T03:40:02.803Z,1
2018-04-15T03:45:03.327Z,1
2018-04-15T03:50:02.927Z,1
2018-04-15T03:55:02.552Z,1
2018-04-15T04:00:03.373Z,1
2018-04-15T04:05:02.894Z,1
2018-04-15T04:10:02.606Z,2
2018-04-15T04:15:03.276Z,2
2018-04-15T04:20:02.892Z,4
2018-04-15T04:25:03.652Z,8
2018-04-15T04:30:02.825Z,14
2018-04-15T04:35:02.508Z,19
2018-04-15T04:40:03.230Z,27
2018-04-15T04:45:02.807Z,35
2018-04-15T04:50:02.648Z,42
2018-04-15T04:55:03.267Z,57
2018-04-15T05:00:02.874Z,76
2018-04-15T05:05:02.510Z,150
2018-04-15T05:10:03.149Z,304
2018-04-15T05:15:02.930Z,402
2018-04-15T05:20:02.537Z,337
2018-04-15T05:25:03.116Z,412
2018-04-15T05:30:02.682Z,412
2018-04-15T05:35:03.346Z,545
2018-04-15T05:40:02.896Z,487
2018-04-15T05:45:03.446Z,915
2018-04-15T05:50:02.950Z,1000
2018-04-15T05:55:02.781Z,1000
2018-04-15T06:00:03.530Z,2000
2018-04-15T06:05:03.124Z,2000
2018-04-15T06:10:02.761Z,2000
2018-04-15T06:15:03.372Z,3000
2018-04-15T06:20:03.004Z,3000
2018-04-15T06:25:02.554Z,2000
2018-04-15T06:30:03.267Z,721
2018-04-15T06:35:02.826Z,639
2018-04-15T06:40:02.665Z,541
2018-04-15T06:45:03.200Z,545
2018-04-15T06:50:02.794Z,677
2018-04-15T06:55:03.306Z,1000
2018-04-15T07:00:02.943Z,2000
2018-04-15T07:05:02.507Z,2000
2018-04-15T07:10:03.141Z,2000
2018-04-15T07:15:02.782Z,2000
2018-04-15T07:20:03.347Z,1000
2018-04-15T07:25:02.944Z,1000
2018-04-15T07:30:02.574Z,3000
2018-04-15T07:35:03.246Z,4000
2018-04-15T07:40:02.816Z,5000
2018-04-15T07:45:03.559Z,5000
2018-04-15T07:50:03.239Z,4000
2018-04-15T07:55:02.925Z,4000
2018-04-15T08:00:03.433Z,25000
2018-04-15T08:05:03.071Z,34000
2018-04-15T08:10:02.790Z,36000
2018-04-15T08:15:03.367Z,37000
2018-04-15T08:20:03.025Z,37000
2018-04-15T08:25:02.603Z,15000
2018-04-15T08:30:03.157Z,43000
2018-04-15T08:35:02.814Z,44000
2018-04-15T08:40:02.570Z,42000
2018-04-15T08:45:03.153Z,37000
2018-04-15T08:50:02.715Z,43000
2018-04-15T08:55:03.289Z,23000
2018-04-15T09:00:02.921Z,34000
2018-04-15T09:05:02.631Z,42000
2018-04-15T09:10:03.302Z,45000
2018-04-15T09:15:02.975Z,29000
2018-04-15T09:20:02.650Z,43000
2018-04-15T09:25:03.238Z,43000
2018-04-15T09:30:02.818Z,36000
2018-04-15T09:35:02.607Z,14000
2018-04-15T09:40:03.200Z,47000
2018-04-15T09:45:02.783Z,42000
2018-04-15T09:50:02.485Z,44000
2018-04-15T09:55:03.045Z,47000
2018-04-15T10:00:02.723Z,49000
2018-04-15T10:05:03.269Z,47000
2018-04-15T10:10:02.959Z,25000
2018-04-15T10:15:02.672Z,27000
2018-04-15T10:20:03.288Z,51000
2018-04-15T10:25:02.953Z,23000
2018-04-15T10:30:02.733Z,53000
2018-04-15T10:35:03.359Z,43000
2018-04-15T10:40:02.981Z,52000
2018-04-15T10:45:02.818Z,54000
2018-04-15T10:50:03.414Z,12000
2018-04-15T10:55:03.035Z,29000
2018-04-15T11:00:02.851Z,9000
2018-04-15T11:05:03.441Z,51000
2018-04-15T11:10:03.175Z,46000
2018-04-15T11:15:02.819Z,52000
2018-04-15T11:20:03.569Z,27000
2018-04-15T11:25:03.360Z,50000
2018-04-15T11:30:03.017Z,49000
2018-04-15T11:35:02.670Z,46000
2018-04-15T11:40:03.296Z,28000
2018-04-15T11:45:02.861Z,43000
2018-04-15T11:50:02.505Z,43000
2018-04-15T11:55:03.324Z,39000
2018-04-15T12:00:02.929Z,42000
2018-04-15T12:05:02.656Z,42000
2018-04-15T12:10:03.278Z,39000
2018-04-15T12:15:02.915Z,41000
2018-04-15T12:20:02.685Z,40000
2018-04-15T12:25:03.365Z,39000
2018-04-15T12:30:03.026Z,28000
2018-04-15T12:35:02.856Z,16000
2018-04-15T12:40:02.530Z,43000
2018-04-15T12:45:03.094Z,43000
2018-04-15T12:50:02.670Z,21000
2018-04-15T12:55:03.285Z,8000
2018-04-15T13:00:02.855Z,11000
2018-04-15T13:05:02.614Z,11000
2018-04-15T13:10:03.517Z,11000
2018-04-15T13:15:03.058Z,11000
2018-04-15T13:20:02.640Z,26000
2018-04-15T13:25:03.224Z,18000
2018-04-15T13:30:02.825Z,8000
2018-04-15T13:35:02.462Z,7000
2018-04-15T13:40:03.144Z,5000
2018-04-15T13:45:02.734Z,5000
2018-04-15T13:50:03.325Z,3000
2018-04-15T13:55:02.876Z,2000
2018-04-15T14:00:03.444Z,2000
2018-04-15T14:05:02.980Z,2000
2018-04-15T14:10:02.653Z,2000
2018-04-15T14:15:03.223Z,2000
2018-04-15T14:20:02.828Z,2000
2018-04-15T14:25:03.423Z,1000
2018-04-15T14:30:03.073Z,1000
2018-04-15T14:35:02.628Z,1000
2018-04-15T14:40:03.268Z,1000
2018-04-15T14:45:03.107Z,1000
2018-04-15T14:50:02.980Z,2000
2018-04-15T14:55:02.651Z,2000
2018-04-15T15:00:03.351Z,4000
2018-04-15T15:05:03.104Z,4000
2018-04-15T15:10:02.823Z,3000
2018-04-15T15:15:02.727Z,3000
2018-04-15T15:20:03.369Z,4000
2018-04-15T15:25:02.994Z,8000
2018-04-15T15:30:02.799Z,6000
2018-04-15T15:35:03.396Z,6000
2018-04-15T15:40:03.221Z,5000
2018-04-15T15:45:02.854Z,4000
2018-04-15T15:50:02.504Z,4000
2018-04-15T15:55:03.248Z,4000
2018-04-15T16:00:02.807Z,4000
2018-04-15T16:05:03.451Z,4000
2018-04-15T16:10:03.176Z,3000
2018-04-15T16:15:02.898Z,3000
2018-04-15T16:20:02.530Z,3000
2018-04-15T16:30:02.667Z,2000
2018-04-15T16:35:03.367Z,2000
2018-04-15T16:40:03.097Z,2000
2018-04-15T16:45:02.721Z,1000
2018-04-15T16:50:03.309Z,2000
2018-04-15T16:55:02.975Z,2000
2018-04-15T17:00:02.930Z,1000
2018-04-15T17:05:02.839Z,1000
2018-04-15T17:10:02.566Z,1000
2018-04-15T17:15:03.252Z,1000
2018-04-15T17:20:02.834Z,1000
2018-04-15T17:25:03.453Z,1000
2018-04-15T17:30:02.990Z,1000
2018-04-15T17:35:02.714Z,1000
2018-04-15T17:40:03.312Z,1000
2018-04-15T17:45:02.868Z,1000
2018-04-15T17:50:03.461Z,956
2018-04-15T17:55:03.311Z,818
2018-04-15T18:00:03.104Z,691
2018-04-15T18:05:02.760Z,597
2018-04-15T18:10:03.442Z,468
2018-04-15T18:15:03.024Z,353
2018-04-15T18:20:02.747Z,251
2018-04-15T18:25:03.415Z,73
2018-04-15T18:30:03.033Z,59
2018-04-15T18:35:02.652Z,41
2018-04-15T18:40:03.360Z,29
2018-04-15T18:45:02.951Z,21
2018-04-15T18:50:02.865Z,16
2018-04-15T18:55:02.869Z,10
2018-04-15T19:00:02.583Z,6
2018-04-15T19:05:03.232Z,3
2018-04-15T19:10:02.916Z,2
2018-04-15T19:15:02.549Z,1
2018-04-15T19:20:03.125Z,1
2018-04-15T19:25:02.764Z,1
2018-04-15T19:30:03.350Z,1
2018-04-15T19:35:02.979Z,1
2018-04-15T19:40:02.654Z,1
2018-04-15T19:45:03.304Z,1
2018-04-15T19:50:02.962Z,1
2018-04-15T19:55:02.626Z,1
2018-04-15T20:00:03.638Z,1
2018-04-15T20:05:03.459Z,1
2018-04-15T20:10:02.534Z,1
2018-04-15T20:15:03.203Z,1
2018-04-15T20:20:02.876Z,1
2018-04-15T20:25:03.457Z,1
2018-04-15T20:30:03.093Z,1
2018-04-15T20:35:02.861Z,1
2018-04-15T20:40:02.540Z,1
2018-04-15T20:45:03.124Z,1
2018-04-15T20:50:02.728Z,1
2018-04-15T20:55:03.354Z,1
2018-04-15T21:00:03.187Z,1
2018-04-15T21:05:02.808Z,1
2018-04-15T21:10:02.497Z,1
2018-04-15T21:15:03.238Z,1
2018-04-15T21:20:02.918Z,1
2018-04-15T21:25:02.570Z,1
2018-04-15T21:30:03.270Z,1
2018-04-15T21:35:02.826Z,1
2018-04-15T21:40:02.491Z,1
2018-04-15T21:45:03.103Z,1
2018-04-15T21:50:02.733Z,1
2018-04-15T21:55:03.373Z,1
2018-04-15T22:00:02.958Z,1
2018-04-15T22:05:02.534Z,1
2018-04-15T22:10:03.205Z,1
2018-04-15T22:15:02.893Z,1
2018-04-15T22:20:02.498Z,1
2018-04-15T22:25:03.050Z,1
2018-04-15T22:30:02.838Z,1
2018-04-15T22:35:03.419Z,1
2018-04-15T22:40:02.999Z,1
2018-04-15T22:45:02.677Z,1
2018-04-15T22:50:03.295Z,1
2018-04-15T22:55:02.818Z,1
2018-04-15T23:00:05.899Z,1
2018-04-15T23:05:03.141Z,1
2018-04-15T23:10:03.028Z,1
2018-04-15T23:15:02.580Z,1
2018-04-15T23:20:03.218Z,1
2018-04-15T23:25:02.873Z,1
2018-04-15T23:30:02.568Z,1
2018-04-15T23:35:03.142Z,1
2018-04-15T23:40:02.799Z,1
2018-04-15T23:45:03.423Z,1
2018-04-15T23:50:02.974Z,1
2018-04-15T23:55:02.620Z,1
